San Francisco (SFO/KSFO)

Information

Location
San Francisco, CA
Local Time
17:09 / 5:09 pm
GMT Time
00:09 / 12:09 am
Gates
No FAA reported delays
METAR KSFO 252356Z 26020G26KT 10SM FEW015 SCT045 BKN085 17/10 A3008 RMK AO2 PK WND 26026/2356 SLP187 T01670100 10178 20156 58008
TAF KSFO 252333Z 2600/2706 26018G24KT P6SM SCT017 BKN080 TEMPO 2600/2602 BKN016 FM260400 28011KT P6SM FEW018 FEW050 SCT080 FM260600 27010KT P6SM FEW015 FEW030 SCT050 FM261200 26008KT P6SM SCT015 SCT030 BKN050 FM261500 27014KT P6SM VCSH FEW015 SCT025 BKN030 FM262000 26016G20KT P6SM SCT020 SCT050 FM270100 27015KT P6SM SCT015 SCT030